Flight Track Log - Related Links

Times and Time Zones

All times are in EDT time to prevent confusion due to time zone crossing. See the N137TK flight status page for this flight to view local times or setup timezone preferences in your user account.

Time Position Orientation Groundspeed Altitude Reporting Facility
EDT Latitude Longitude Course Direction KTS MPH feet Rate Location/Type
Tue 05:26:00 PM 40.2056 -76.8672 118° Southeast  Level FlightAware Approximate
Tue 05:27:00 PM 40.1802 -76.8055 118° Southeast  Level FlightAware Approximate
Tue 05:28:00 PM 40.1549 -76.7438 118° Southeast  Level FlightAware Approximate
Tue 05:29:00 PM 40.1295 -76.6821 118° Southeast  Level FlightAware Approximate
Tue 05:30:00 PM 40.1040 -76.6205 118° Southeast  Level FlightAware Approximate
Tue 05:30:09 PM 39.9833 -76.4167 119° Southeast 240 276 7,000  Level Philadelphia TRACON
Tue 05:31:00 PM 40.0785 -76.5590 118° Southeast  Level FlightAware Approximate
Tue 05:31:34 PM 39.9500 -76.3000 110° East 242 278 7,000  Level Philadelphia TRACON
Tue 05:32:00 PM 40.0530 -76.4974 118° Southeast  Level FlightAware Approximate
Tue 05:32:34 PM 39.9167 -76.2333 123° Southeast 241 277 7,000  Level Philadelphia TRACON
Tue 05:33:00 PM 40.0275 -76.4360 119° Southeast  Level FlightAware Approximate
Tue 05:33:28 PM 39.8833 -76.1500 118° Southeast 239 275 7,000  Level Philadelphia TRACON
Tue 05:34:00 PM 40.0017 -76.3747 119° Southeast  Level FlightAware Approximate
Tue 05:34:28 PM 39.8667 -76.0833 108° East 242 278 6,600  Level Philadelphia TRACON
Tue 05:35:00 PM 39.9760 -76.3134 119° Southeast  Level FlightAware Approximate
Tue 05:35:22 PM 39.8333 -76.0167 123° Southeast 252 290 5,700  Level Philadelphia TRACON
Tue 05:36:22 PM 39.8000 -75.9333 117° Southeast 253 291 4,600 -1,000 Descending Philadelphia TRACON
Tue 05:37:22 PM 39.7667 -75.8500 117° Southeast 230 265 3,700 -950 Descending Philadelphia TRACON
Tue 05:38:22 PM 39.7333 -75.8000 131° Southeast 200 230 2,700 -1,000 Descending Philadelphia TRACON
Tue 05:39:28 PM 39.7000 -75.7333 123° Southeast 188 216 1,600 -714 Descending Philadelphia TRACON
Tue 05:40:28 PM 39.6833 -75.6833 113° Southeast 121 139 1,200 -450 Descending Philadelphia TRACON
Tue 05:41:28 PM 39.6667 -75.6500 123° Southeast 107 123 700 -500 Descending Philadelphia TRACON
Tue 05:43:00 PM 39.6667 -75.6000 128° Southeast  Level FlightAware Approximate
Tue 05:50:00 PM 39.6787 -75.6066 128° Southeast  Level Estimated

Login

Don't have an account? Register now (free) for customized features, flight alerts, and more!